LGTSLGKR

Guest
Details From LGTS - Thessalonik Makedonia
To LGKR - IOANNIS KAPODISTRIAS INTL
Flight Number -
Tags decoded
Created
Modified
Stats Distance 153 nm / 283 km
Max Altitude 0 ft / 0 m
Waypoints 5
Social Downloads 7
Likes 0
Share VATSIM

Download

Looking for another format? Having issues loading an existing format? Contact us
Advertisement - Login to hide

Notes

Requested: LGTS LOPOS UM600 YNN LGKR

Route

LGTS LOPOS UM600 YNN LGKR

ID Type Via Altitude Latitude Longitude Leg Dist Tot Dist Heading (true) Name
O LGTS APT - 0 ft / 0 m 40.51952˚ 22.97202˚ - 0 nm - Thessalonik Makedonia
LOPOS FIX - 0 ft / 0 m 40.29083˚ 22.50028˚ 25 nm 25 nm 238° / 237° -
PIKOS FIX UM600 (AWY-HI) 0 ft / 0 m 39.96167˚ 21.55000˚ 47 nm 73 nm 246° / 245° -
YNN VOR UM600 (AWY-HI) 0 ft / 0 m 39.70139˚ 20.82000˚ 37 nm 110 nm 245° / 245° IOANNINA VOR-DME
O LGKR APT - 0 ft / 0 m 39.60178˚ 19.91191˚ 42 nm 153 nm 262° / 262° IOANNIS KAPODISTRIAS INTL

Altitude Profile

Advertisement - Login to hide

LGTS

Details ICAO LGTS (SKG)
Name Thessalonik Makedonia
Region Greece
Timezone Europe/Athens (UTC+3.0)
Stats Elevation 22 ft / 7 m (AMSL)
Location 40.519522° 22.972017°
Runways 2
Magnetic Variation 4.668° E

METAR

Not found

TAF

TAF LGTS 272300Z 2800/2824 VRB03KT 9999 FEW025 BECMG 2812/2814 16010KT TEMPO 2810/2824 7000 SHRA FEW020CB BKN025 PROB40 TEMPO 2811/2821 4000 TSRA FEW018CB BKN020 BECMG 2819/2821 VRB03KT

Decode

Departure Runways

ID Width Length Bearing (true) Bearing (mag) Surface Threshold Offset Overrun Length
10 164 ft / 50 m 7,990 ft / 2,435 m 103.95° 99.28° Asphalt 0 ft / 0 m 150 ft / 46 m
16 197 ft / 60 m 7,927 ft / 2,416 m 166.35° 161.68° Asphalt 0 ft / 0 m 200 ft / 61 m
28 164 ft / 50 m 7,990 ft / 2,435 m 283.97° 279.30° Asphalt 0 ft / 0 m 150 ft / 46 m
34 197 ft / 60 m 7,927 ft / 2,416 m 346.36° 341.69° Asphalt 0 ft / 0 m 200 ft / 61 m

LGKR

Details ICAO LGKR (CFU)
Name IOANNIS KAPODISTRIAS INTL
Region Greece
Timezone Europe/Athens (UTC+3.0)
Stats Elevation 6 ft / 2 m (AMSL)
Location 39.601779° 19.911908°
Runways 1
Magnetic Variation 4.143° E

METAR

Not found

TAF

TAF LGKR 272300Z 2800/2824 VRB05KT 9999 FEW020 TEMPO 2812/2815 26010KT

Decode

Destination Runways

ID Width Length Bearing (true) Bearing (mag) Surface Threshold Offset Overrun Length
17 148 ft / 45 m 7,815 ft / 2,382 m 168.81° 164.67° Asphalt 1,348 ft / 411 m 0 ft / 0 m
35 148 ft / 45 m 7,815 ft / 2,382 m 348.81° 344.67° Asphalt 213 ft / 65 m 0 ft / 0 m

Popular Alternatives